createdAt,value
2023-02-27T00:04:34.723Z,98249.06
2023-02-27T00:09:42.057Z,98251.66
2023-02-27T00:14:45.524Z,98259.47
2023-02-27T00:19:48.916Z,98270.97
2023-02-27T00:24:53.715Z,98283.06
2023-02-27T00:29:56.778Z,98285.78
2023-02-27T00:35:00.432Z,98293.91
2023-02-27T00:40:06.479Z,98300.00
2023-02-27T00:45:11.065Z,98314.50
2023-02-27T00:50:15.534Z,98313.22
2023-02-27T00:55:20.534Z,98329.47
2023-02-27T01:00:24.081Z,98335.38
2023-02-27T01:05:27.720Z,98339.56
2023-02-27T01:10:32.749Z,98343.13
2023-02-27T01:15:36.379Z,98361.97
2023-02-27T01:20:39.878Z,98362.78
2023-02-27T01:25:44.776Z,98362.78
2023-02-27T01:30:48.417Z,98369.50
2023-02-27T01:35:51.993Z,98371.31
2023-02-27T01:40:57.540Z,98377.88
2023-02-27T01:46:01.473Z,98391.97
2023-02-27T01:51:09.160Z,98401.56
2023-02-27T01:56:17.321Z,98411.75
2023-02-27T02:01:22.824Z,98409.09
2023-02-27T02:06:26.643Z,98424.63
2023-02-27T02:11:31.736Z,98432.06
2023-02-27T02:17:13.918Z,98444.44
2023-02-27T02:22:42.718Z,98458.16
2023-02-27T02:28:04.468Z,98472.91
2023-02-27T02:33:47.336Z,98484.16
2023-02-27T02:39:09.269Z,98489.44
2023-02-27T02:44:24.737Z,98501.81
2023-02-27T02:49:34.568Z,98489.47
2023-02-27T02:54:45.104Z,98530.13
2023-02-27T02:59:55.244Z,98534.84
2023-02-27T03:05:02.954Z,98546.22
2023-02-27T03:10:11.705Z,98562.34
2023-02-27T03:15:20.320Z,98566.72
2023-02-27T03:20:26.609Z,98568.88
2023-02-27T03:25:32.774Z,98570.75
2023-02-27T03:30:39.240Z,98577.47
2023-02-27T03:35:48.564Z,98586.59
2023-02-27T03:41:04.968Z,98597.66
2023-02-27T03:46:13.608Z,98601.91
2023-02-27T03:51:19.601Z,98626.28
2023-02-27T03:56:29.663Z,98630.19
2023-02-27T04:01:33.628Z,98631.84
2023-02-27T04:06:56.032Z,98651.81
2023-02-27T04:12:25.174Z,98669.13
2023-02-27T04:17:31.760Z,98685.38
2023-02-27T04:22:39.590Z,98670.88
2023-02-27T04:27:52.801Z,98685.47
2023-02-27T04:33:01.324Z,98693.53
2023-02-27T04:38:11.085Z,98697.00
2023-02-27T04:43:17.883Z,98707.59
2023-02-27T04:48:24.589Z,98722.94
2023-02-27T04:53:33.492Z,98729.38
2023-02-27T04:58:41.392Z,98739.69
2023-02-27T05:03:49.050Z,98743.84
2023-02-27T05:09:00.461Z,98747.63
2023-02-27T05:14:13.679Z,98757.09
2023-02-27T05:19:20.178Z,98774.00
2023-02-27T05:24:32.127Z,98762.22
2023-02-27T05:29:43.881Z,98783.50
2023-02-27T05:34:54.114Z,98786.06
2023-02-27T05:39:58.565Z,98791.91
2023-02-27T05:45:09.132Z,98798.59
2023-02-27T05:50:17.019Z,98796.91
2023-02-27T05:55:25.600Z,98797.50
2023-02-27T06:00:38.628Z,98813.47
2023-02-27T06:05:44.648Z,98819.53
2023-02-27T06:10:50.001Z,98819.44
2023-02-27T06:15:55.017Z,98832.25
2023-02-27T06:20:58.882Z,98837.44
2023-02-27T06:26:02.445Z,98852.47
2023-02-27T06:31:07.333Z,98853.44
2023-02-27T06:36:11.368Z,98854.66
2023-02-27T06:41:15.143Z,98863.78
2023-02-27T06:46:20.216Z,98864.91
2023-02-27T06:51:23.582Z,98872.38
2023-02-27T06:56:27.319Z,98876.63
2023-02-27T07:01:32.406Z,98884.75
2023-02-27T07:07:34.246Z,98891.53
2023-02-27T07:11:59.580Z,98904.22
2023-02-27T07:17:04.831Z,98900.31
2023-02-27T07:22:09.672Z,98913.31
2023-02-27T07:27:13.022Z,98906.28
2023-02-27T07:32:18.110Z,98918.19
2023-02-27T07:37:21.701Z,98932.69
2023-02-27T07:42:26.570Z,98924.38
2023-02-27T07:47:32.006Z,98942.53
2023-02-27T07:52:35.617Z,98947.56
2023-02-27T07:57:39.587Z,98956.34
2023-02-27T08:02:44.479Z,98971.63
2023-02-27T08:07:47.726Z,98977.25
2023-02-27T08:12:51.066Z,98984.84
2023-02-27T08:17:56.217Z,98989.50
2023-02-27T08:22:59.858Z,98992.25
2023-02-27T08:28:03.377Z,98997.72
2023-02-27T08:33:08.300Z,98996.28
2023-02-27T08:38:11.510Z,99000.13
2023-02-27T08:43:15.096Z,98999.72
2023-02-27T08:48:20.345Z,98997.88
2023-02-27T08:53:23.904Z,98981.28
2023-02-27T08:58:28.819Z,99017.22
2023-02-27T09:03:33.320Z,99023.72
2023-02-27T09:08:36.821Z,99039.53
2023-02-27T09:13:40.351Z,99037.66
2023-02-27T09:18:45.661Z,99041.75
2023-02-27T09:23:49.175Z,99056.06
2023-02-27T09:28:52.779Z,99061.06
2023-02-27T09:33:58.445Z,99070.06
2023-02-27T09:39:01.932Z,99077.50
2023-02-27T09:44:05.580Z,99073.34
2023-02-27T09:49:17.876Z,99079.41
2023-02-27T09:54:21.551Z,99082.38
2023-02-27T09:59:36.105Z,99089.41
2023-02-27T10:04:48.890Z,99080.78
2023-02-27T10:10:01.708Z,99085.78
2023-02-27T10:15:11.969Z,99102.97
2023-02-27T10:20:25.731Z,99116.16
2023-02-27T10:25:32.173Z,99109.66
2023-02-27T10:30:36.207Z,99121.38
2023-02-27T10:35:44.536Z,99135.72
2023-02-27T10:40:49.818Z,99151.28
2023-02-27T10:45:54.598Z,99154.91
2023-02-27T10:51:23.931Z,99168.63
2023-02-27T10:56:28.862Z,99179.84
2023-02-27T11:01:44.433Z,99171.59
2023-02-27T11:06:54.804Z,99181.97
2023-02-27T11:12:13.332Z,99183.19
2023-02-27T11:17:24.324Z,99181.38
2023-02-27T11:22:31.477Z,99194.88
2023-02-27T11:27:34.933Z,99192.13
2023-02-27T11:32:44.312Z,99199.28
2023-02-27T11:37:51.247Z,99211.91
2023-02-27T11:42:58.530Z,99213.59
2023-02-27T11:48:09.721Z,99204.44
2023-02-27T11:53:35.842Z,99220.78
2023-02-27T11:58:44.703Z,99230.34
2023-02-27T12:03:53.770Z,99241.38
2023-02-27T12:09:06.309Z,99236.38
2023-02-27T12:14:18.136Z,99236.47
2023-02-27T12:19:27.194Z,99242.69
2023-02-27T12:24:37.981Z,99255.06
2023-02-27T12:29:45.297Z,99259.34
2023-02-27T12:34:51.313Z,99255.41
2023-02-27T12:39:57.933Z,99282.22
2023-02-27T12:45:23.590Z,99286.41
2023-02-27T12:50:31.578Z,99284.81
2023-02-27T12:55:42.569Z,99302.56
2023-02-27T13:00:49.726Z,99313.38
2023-02-27T13:06:01.871Z,99325.47
2023-02-27T13:11:17.499Z,99324.41
2023-02-27T13:16:25.864Z,99324.63
2023-02-27T13:21:36.469Z,99330.00
2023-02-27T13:26:45.356Z,99347.34
2023-02-27T13:31:57.502Z,99352.97
2023-02-27T13:37:04.599Z,99355.31
2023-02-27T13:42:55.571Z,99361.22
2023-02-27T13:47:58.994Z,99345.72
2023-02-27T13:53:11.415Z,99352.63
2023-02-27T13:58:24.924Z,99362.06
2023-02-27T14:03:30.419Z,99360.47
2023-02-27T14:08:48.119Z,99370.25
2023-02-27T14:14:08.438Z,99369.91
2023-02-27T14:19:45.128Z,99394.53
2023-02-27T14:25:02.867Z,99409.66
2023-02-27T14:30:26.467Z,99411.53
2023-02-27T14:35:31.702Z,99396.03
2023-02-27T14:40:41.703Z,99427.81
2023-02-27T14:45:46.678Z,99436.94
2023-02-27T14:50:54.063Z,99439.75
2023-02-27T14:55:59.122Z,99448.31
2023-02-27T15:01:07.707Z,99449.69
2023-02-27T15:06:18.519Z,99447.81
2023-02-27T15:11:24.365Z,99461.59
2023-02-27T15:16:39.280Z,99462.50
2023-02-27T15:21:45.769Z,99454.53
2023-02-27T15:26:52.500Z,99484.50
2023-02-27T15:31:57.623Z,99475.06
2023-02-27T15:37:02.285Z,99482.41
2023-02-27T15:42:07.048Z,99486.09
2023-02-27T15:47:16.861Z,99506.53
2023-02-27T15:52:23.291Z,99516.03
2023-02-27T15:57:27.312Z,99526.25
2023-02-27T16:02:41.503Z,99521.34
2023-02-27T16:07:45.929Z,99518.75
2023-02-27T16:12:49.541Z,99538.06
2023-02-27T16:18:03.679Z,99530.19
2023-02-27T16:23:16.253Z,99551.53
2023-02-27T16:28:19.866Z,99560.94
2023-02-27T16:33:25.989Z,99570.94
2023-02-27T16:38:29.631Z,99580.13
2023-02-27T16:43:33.741Z,99573.94
2023-02-27T16:48:38.644Z,99578.06
2023-02-27T16:53:41.843Z,99596.06
2023-02-27T16:58:45.881Z,99590.19
2023-02-27T17:03:50.784Z,99605.47
2023-02-27T17:08:56.202Z,99605.44
2023-02-27T17:13:59.812Z,99600.22
2023-02-27T17:19:04.833Z,99616.50
2023-02-27T17:24:08.673Z,99610.00
2023-02-27T17:29:12.493Z,99615.06
2023-02-27T17:34:18.230Z,99616.94
2023-02-27T17:39:21.726Z,99616.88
2023-02-27T17:44:25.137Z,99613.44
2023-02-27T17:49:29.931Z,99620.53
2023-02-27T17:54:33.823Z,99632.28
2023-02-27T17:59:37.777Z,99633.69
2023-02-27T18:04:42.829Z,99642.00
2023-02-27T18:09:47.031Z,99626.25
2023-02-27T18:14:50.438Z,99618.94
2023-02-27T18:19:55.783Z,99612.44
2023-02-27T18:24:59.428Z,99605.78
2023-02-27T18:30:03.812Z,99590.22
2023-02-27T18:35:10.810Z,99601.56
2023-02-27T18:40:15.905Z,99595.53
2023-02-27T18:45:19.524Z,99611.28
2023-02-27T18:50:25.441Z,99608.53
2023-02-27T18:55:29.187Z,99626.69
2023-02-27T19:00:32.625Z,99630.25
2023-02-27T19:05:42.772Z,99624.69
2023-02-27T19:10:46.240Z,99636.72
2023-02-27T19:15:49.897Z,99624.16
2023-02-27T19:20:56.464Z,99621.31
2023-02-27T19:26:01.062Z,99612.34
2023-02-27T19:31:08.638Z,99585.13
2023-02-27T19:36:15.409Z,99594.22
2023-02-27T19:41:19.152Z,99585.66
2023-02-27T19:46:25.224Z,99580.59
2023-02-27T19:51:30.558Z,99590.94
2023-02-27T19:56:34.201Z,99580.41
2023-02-27T20:01:39.062Z,99604.00
2023-02-27T20:06:46.954Z,99600.47
2023-02-27T20:11:54.016Z,99606.44
2023-02-27T20:16:57.518Z,99598.34
2023-02-27T20:22:02.483Z,99611.00
2023-02-27T20:27:07.536Z,99608.75
2023-02-27T20:32:11.126Z,99594.06
2023-02-27T20:37:16.480Z,99621.84
2023-02-27T20:42:19.949Z,99615.66
2023-02-27T20:47:23.515Z,99619.19
2023-02-27T20:52:28.312Z,99611.91
2023-02-27T20:57:31.693Z,99626.09
2023-02-27T21:02:35.166Z,99620.06
2023-02-27T21:07:40.063Z,99618.41
2023-02-27T21:12:45.229Z,99614.44
2023-02-27T21:17:48.812Z,99613.53
2023-02-27T21:22:56.010Z,99609.47
2023-02-27T21:28:02.338Z,99605.34
2023-02-27T21:33:06.341Z,99599.81
2023-02-27T21:38:11.576Z,99603.69
2023-02-27T21:43:15.099Z,99597.84
2023-02-27T21:48:18.630Z,99607.22
2023-02-27T21:53:23.389Z,99613.44
2023-02-27T21:58:26.870Z,99607.59
2023-02-27T22:03:35.124Z,99600.88
2023-02-27T22:08:40.466Z,99598.50
2023-02-27T22:13:43.967Z,99598.22
2023-02-27T22:18:47.709Z,99603.09
2023-02-27T22:23:53.182Z,99592.41
2023-02-27T22:28:58.190Z,99584.31
2023-02-27T22:34:04.099Z,99584.41
2023-02-27T22:39:08.818Z,99578.47
2023-02-27T22:44:14.951Z,99590.03
2023-02-27T22:49:20.609Z,99584.00
2023-02-27T22:54:25.646Z,99577.94
2023-02-27T22:59:29.343Z,99566.75
2023-02-27T23:04:32.789Z,99568.88
2023-02-27T23:09:37.664Z,99557.59
2023-02-27T23:14:40.996Z,99551.75
2023-02-27T23:19:46.118Z,99559.53
2023-02-27T23:24:50.861Z,99553.97
2023-02-27T23:29:54.266Z,99548.84
2023-02-27T23:34:57.612Z,99550.38
2023-02-27T23:40:02.493Z,99552.97
2023-02-27T23:45:07.374Z,99551.88
2023-02-27T23:50:12.643Z,99551.41
2023-02-27T23:55:18.501Z,99546.00
